Havbugvin — XPYL — position and weather

sailwx.info

Track history (hours):
 
Tides and Currents Weather Stations Pressure Air Temp Water Temp Dewpoint Dewpoint Depression Visibility Wind Speed Wind Dir Waves Ship Positions

Havbugvin

Last reported at 2016-Jul-26 03:34 UTC. Time now 2016-Jul-30 15:00 UTC.
Position N 62°23' W 008°35'.

Length 38 m.

Type: Fishing. MMSI: 231181000.

Date/timePositionNaut miles runAvg speedWind from/ knotsBaromVisibWave heightAir tempDewpointWater temp
2016-Jul-26 03:34N 62°23' W 008°35'6 5.9
2016-Jul-26 02:34N 62°19' W 008°25'6 6.2
2016-Jul-26 01:33N 62°15' W 008°15'7 7.1
2016-Jul-26 00:33N 62°10' W 008°04'8 7.7
2016-Jul-25 23:34N 62°05' W 007°52'9 8.7
2016-Jul-25 22:34N 62°00' W 007°36'8 8.4
2016-Jul-25 21:33N 61°57' W 007°19'8 8.1
2016-Jul-25 20:33N 61°56' W 007°02'9 9.0
2016-Jul-25 19:33N 61°57' W 006°43'4 3.5
2016-Jul-25 18:33N 62°00' W 006°46'0 0.0
2016-Jul-25 17:34N 62°00' W 006°46'0 0.0
2016-Jul-25 16:33N 62°00' W 006°46'0 0.0
2016-Jul-25 15:34N 62°00' W 006°46'0 0.0
2016-Jul-25 14:33N 62°00' W 006°46'0 0.0
2016-Jul-25 13:34N 62°00' W 006°46'0 0.2
2016-Jul-25 12:33N 62°00' W 006°46'0 0.0
2016-Jul-25 11:34N 62°00' W 006°46'0 0.0
2016-Jul-25 10:33N 62°00' W 006°46'0 0.0
2016-Jul-25 09:34N 62°00' W 006°46'0 0.0
2016-Jul-25 08:33N 62°00' W 006°46'0 0.0
2016-Jul-25 07:33N 62°00' W 006°46'0 0.0
2016-Jul-25 06:34N 62°00' W 006°46'0 0.0
2016-Jul-25 05:33N 62°00' W 006°46'0 0.0
2016-Jul-25 04:33N 62°00' W 006°46'0 0.0
2016-Jul-25 03:33N 62°00' W 006°46'0 0.0
2016-Jul-25 02:33N 62°00' W 006°46'0 0.0
2016-Jul-25 01:33N 62°00' W 006°46'0 0.0
2016-Jul-25 00:33N 62°00' W 006°46'0 0.0
2016-Jul-24 23:34N 62°00' W 006°46'0 0.0
2016-Jul-24 22:32N 62°00' W 006°46'0 0.0
2016-Jul-24 21:33N 62°00' W 006°46'0 0.0
2016-Jul-24 20:34N 62°00' W 006°46'0 0.0
2016-Jul-24 19:33N 62°00' W 006°46'0 0.0
2016-Jul-24 18:34N 62°00' W 006°46'0 0.0
2016-Jul-24 17:31N 62°00' W 006°46'0 0.0
2016-Jul-24 16:32N 62°00' W 006°46'0 0.0
2016-Jul-24 15:33N 62°00' W 006°46'0 0.0
2016-Jul-24 14:33N 62°00' W 006°46'0 0.0
2016-Jul-24 13:34N 62°00' W 006°46'0 0.0
2016-Jul-24 12:34N 62°00' W 006°46'0 0.0
2016-Jul-24 11:33N 62°00' W 006°46'0 0.0
2016-Jul-24 10:33N 62°00' W 006°46'0 0.0
2016-Jul-24 09:33N 62°00' W 006°46'0 0.0
2016-Jul-24 08:33N 62°00' W 006°46'0 0.0
2016-Jul-24 07:33N 62°00' W 006°46'0 0.0
2016-Jul-24 06:33N 62°00' W 006°46'0 0.0
2016-Jul-24 05:33N 62°00' W 006°46'0 0.0
2016-Jul-24 04:32N 62°00' W 006°46'0 0.0
2016-Jul-24 03:32N 62°00' W 006°46'0 0.0
2016-Jul-24 02:32N 62°00' W 006°46'0 0.0
2016-Jul-24 01:34N 62°00' W 006°46'0 0.0
2016-Jul-24 00:33N 62°00' W 006°46'0 0.0
2016-Jul-23 23:33N 62°00' W 006°46'0 0.0
2016-Jul-23 22:33N 62°00' W 006°46'0 0.0
2016-Jul-23 21:33N 62°00' W 006°46'0 0.0
2016-Jul-23 20:33N 62°00' W 006°46'0 0.0
2016-Jul-23 19:33N 62°00' W 006°46'0 0.0
2016-Jul-23 18:34N 62°00' W 006°46'0 0.0
2016-Jul-23 17:33N 62°00' W 006°46'0 0.0
2016-Jul-23 16:33N 62°00' W 006°46'0 0.0
2016-Jul-23 15:33N 62°00' W 006°46'0 0.0
2016-Jul-23 14:33N 62°00' W 006°46'0 0.0
2016-Jul-23 13:33N 62°00' W 006°46'0 0.0
2016-Jul-23 12:33N 62°00' W 006°46'0 0.0
2016-Jul-23 11:33N 62°00' W 006°46'0 0.0
2016-Jul-23 10:33N 62°00' W 006°46'0 0.0
2016-Jul-23 09:33N 62°00' W 006°46'0 0.0
2016-Jul-23 08:33N 62°00' W 006°46'0 0.0
2016-Jul-23 07:33N 62°00' W 006°46'0 0.0
2016-Jul-23 06:33N 62°00' W 006°46'0 0.0
2016-Jul-23 04:33N 62°00' W 006°46'0 0.0
2016-Jul-23 03:34N 62°00' W 006°46'0 0.0
2016-Jul-23 02:33N 62°00' W 006°46'0 0.0
2016-Jul-23 01:33N 62°00' W 006°46'0 0.0
2016-Jul-23 00:34N 62°00' W 006°46'0 0.0
2016-Jul-22 23:33N 62°00' W 006°46'0 0.0
2016-Jul-22 22:34N 62°00' W 006°46'0 0.0
2016-Jul-22 21:33N 62°00' W 006°46'0 0.0
2016-Jul-22 20:33N 62°00' W 006°46'0 0.0
2016-Jul-22 19:33N 62°00' W 006°46'0 0.0
2016-Jul-22 18:33N 62°00' W 006°46'0 0.0
2016-Jul-22 17:33N 62°00' W 006°46'0 0.0
2016-Jul-22 16:33N 62°00' W 006°46'0 0.0
2016-Jul-22 15:34N 62°00' W 006°46'0 0.0
2016-Jul-22 14:33N 62°00' W 006°46'0 0.0
2016-Jul-22 13:33N 62°00' W 006°46'0 0.0
2016-Jul-22 12:33N 62°00' W 006°46'0 0.0
2016-Jul-22 11:33N 62°00' W 006°46'0 0.0
2016-Jul-22 10:33N 62°00' W 006°46'0 0.0
2016-Jul-22 09:34N 62°00' W 006°46'0 0.0
2016-Jul-22 08:33N 62°00' W 006°46'0 0.0
2016-Jul-22 07:34N 62°00' W 006°46'0 0.0
2016-Jul-22 05:33N 62°00' W 006°46'0 0.0
2016-Jul-22 04:33N 62°00' W 006°46'0 0.0
2016-Jul-22 03:33N 62°00' W 006°46'0 0.0
2016-Jul-22 02:33N 62°00' W 006°46'0 0.0
2016-Jul-22 01:33N 62°00' W 006°46'0 0.0
2016-Jul-22 00:34N 62°00' W 006°46'0 0.0
2016-Jul-21 23:34N 62°00' W 006°46'0 0.0
2016-Jul-21 22:33N 62°00' W 006°46'0 0.0
2016-Jul-21 21:29N 62°00' W 006°46'0 0.0
2016-Jul-21 20:33N 62°00' W 006°46'0 0.0
2016-Jul-21 19:33N 62°00' W 006°46'0 0.0
2016-Jul-21 18:33N 62°00' W 006°46'0 0.0
2016-Jul-21 17:33N 62°00' W 006°46'0 0.0
2016-Jul-21 16:33N 62°00' W 006°46'0 0.0
2016-Jul-21 15:33N 62°00' W 006°46'0 0.2
2016-Jul-21 14:33N 62°00' W 006°46'0 0.0
2016-Jul-21 13:33N 62°00' W 006°46'0 0.0
2016-Jul-21 12:20N 62°00' W 006°46'0 0.0
2016-Jul-21 11:33N 62°00' W 006°46'0 0.0
2016-Jul-21 10:33N 62°00' W 006°46'0 0.0
2016-Jul-21 09:33N 62°00' W 006°46'0 0.0
2016-Jul-21 08:33N 62°00' W 006°46'0 0.0
2016-Jul-21 07:34N 62°00' W 006°46'0 0.0
2016-Jul-21 06:34N 62°00' W 006°46'0 0.0
2016-Jul-21 05:33N 62°00' W 006°46'0 0.0
2016-Jul-21 04:33N 62°00' W 006°46'0 0.0
2016-Jul-21 03:34N 62°00' W 006°46'0 0.0
2016-Jul-21 02:33N 62°00' W 006°46'0 0.0
2016-Jul-21 01:34N 62°00' W 006°46'0 0.0
2016-Jul-21 00:33N 62°00' W 006°46'0 0.0
2016-Jul-20 23:33N 62°00' W 006°46'0 0.0
2016-Jul-20 22:33N 62°00' W 006°46'0 0.1
2016-Jul-20 21:33N 62°00' W 006°46'0 0.0
2016-Jul-20 20:33N 62°00' W 006°46'0 0.0
2016-Jul-20 19:34N 62°00' W 006°46'4 4.1
2016-Jul-20 18:33N 61°57' W 006°43'7 7.4
2016-Jul-20 17:34N 61°56' W 006°58'7 6.6
2016-Jul-20 16:33N 61°58' W 007°12'7 6.8
2016-Jul-20 15:33N 61°59' W 007°26'7 7.4
2016-Jul-20 14:33N 62°01' W 007°42'8 7.9
2016-Jul-20 13:34N 62°05' W 007°56'8 8.3
2016-Jul-20 12:33N 62°12' W 008°06'9 9.2
2016-Jul-20 11:34N 62°20' W 008°16'9 8.7
2016-Jul-20 10:33N 62°27' W 008°26'8 8.1
2016-Jul-20 09:34N 62°34' W 008°36'8 7.6
2016-Jul-20 08:33N 62°40' W 008°47'11 7.8
2016-Jul-20 07:10N 62°48' W 009°03'5 7.4
2016-Jul-20 06:33N 62°51' W 009°09'15 7.7
2016-Jul-20 04:34N 63°01' W 009°35'8 8.3
2016-Jul-20 03:33N 63°07' W 009°49'  
Track history (hours):
 
Tides and Currents Weather Stations Pressure Air Temp Water Temp Dewpoint Dewpoint Depression Visibility Wind Speed Wind Dir Waves Ship Positions

Havbugvin

Last reported at 2016-Jul-26 03:34 UTC. Time now 2016-Jul-30 15:00 UTC.
Position N 62°23' W 008°35'.

Length 38 m.

Type: Fishing. MMSI: 231181000.

Date/timePositionNaut miles runAvg speedWind from/ knotsBaromVisibWave heightAir tempDewpointWater temp
2016-Jul-26 03:34N 62°23' W 008°35'6 5.9
2016-Jul-26 02:34N 62°19' W 008°25'6 6.2
2016-Jul-26 01:33N 62°15' W 008°15'7 7.1
2016-Jul-26 00:33N 62°10' W 008°04'8 7.7
2016-Jul-25 23:34N 62°05' W 007°52'9 8.7
2016-Jul-25 22:34N 62°00' W 007°36'8 8.4
2016-Jul-25 21:33N 61°57' W 007°19'8 8.1
2016-Jul-25 20:33N 61°56' W 007°02'9 9.0
2016-Jul-25 19:33N 61°57' W 006°43'4 3.5
2016-Jul-25 18:33N 62°00' W 006°46'0 0.0
2016-Jul-25 17:34N 62°00' W 006°46'0 0.0
2016-Jul-25 16:33N 62°00' W 006°46'0 0.0
2016-Jul-25 15:34N 62°00' W 006°46'0 0.0
2016-Jul-25 14:33N 62°00' W 006°46'0 0.0
2016-Jul-25 13:34N 62°00' W 006°46'0 0.2
2016-Jul-25 12:33N 62°00' W 006°46'0 0.0
2016-Jul-25 11:34N 62°00' W 006°46'0 0.0
2016-Jul-25 10:33N 62°00' W 006°46'0 0.0
2016-Jul-25 09:34N 62°00' W 006°46'0 0.0
2016-Jul-25 08:33N 62°00' W 006°46'0 0.0
2016-Jul-25 07:33N 62°00' W 006°46'0 0.0
2016-Jul-25 06:34N 62°00' W 006°46'0 0.0
2016-Jul-25 05:33N 62°00' W 006°46'0 0.0
2016-Jul-25 04:33N 62°00' W 006°46'0 0.0
2016-Jul-25 03:33N 62°00' W 006°46'0 0.0
2016-Jul-25 02:33N 62°00' W 006°46'0 0.0
2016-Jul-25 01:33N 62°00' W 006°46'0 0.0
2016-Jul-25 00:33N 62°00' W 006°46'0 0.0
2016-Jul-24 23:34N 62°00' W 006°46'0 0.0
2016-Jul-24 22:32N 62°00' W 006°46'0 0.0
2016-Jul-24 21:33N 62°00' W 006°46'0 0.0
2016-Jul-24 20:34N 62°00' W 006°46'0 0.0
2016-Jul-24 19:33N 62°00' W 006°46'0 0.0
2016-Jul-24 18:34N 62°00' W 006°46'0 0.0
2016-Jul-24 17:31N 62°00' W 006°46'0 0.0
2016-Jul-24 16:32N 62°00' W 006°46'0 0.0
2016-Jul-24 15:33N 62°00' W 006°46'0 0.0
2016-Jul-24 14:33N 62°00' W 006°46'0 0.0
2016-Jul-24 13:34N 62°00' W 006°46'0 0.0
2016-Jul-24 12:34N 62°00' W 006°46'0 0.0
2016-Jul-24 11:33N 62°00' W 006°46'0 0.0
2016-Jul-24 10:33N 62°00' W 006°46'0 0.0
2016-Jul-24 09:33N 62°00' W 006°46'0 0.0
2016-Jul-24 08:33N 62°00' W 006°46'0 0.0
2016-Jul-24 07:33N 62°00' W 006°46'0 0.0
2016-Jul-24 06:33N 62°00' W 006°46'0 0.0
2016-Jul-24 05:33N 62°00' W 006°46'0 0.0
2016-Jul-24 04:32N 62°00' W 006°46'0 0.0
2016-Jul-24 03:32N 62°00' W 006°46'0 0.0
2016-Jul-24 02:32N 62°00' W 006°46'0 0.0
2016-Jul-24 01:34N 62°00' W 006°46'0 0.0
2016-Jul-24 00:33N 62°00' W 006°46'0 0.0
2016-Jul-23 23:33N 62°00' W 006°46'0 0.0
2016-Jul-23 22:33N 62°00' W 006°46'0 0.0
2016-Jul-23 21:33N 62°00' W 006°46'0 0.0
2016-Jul-23 20:33N 62°00' W 006°46'0 0.0
2016-Jul-23 19:33N 62°00' W 006°46'0 0.0
2016-Jul-23 18:34N 62°00' W 006°46'0 0.0
2016-Jul-23 17:33N 62°00' W 006°46'0 0.0
2016-Jul-23 16:33N 62°00' W 006°46'0 0.0
2016-Jul-23 15:33N 62°00' W 006°46'0 0.0
2016-Jul-23 14:33N 62°00' W 006°46'0 0.0
2016-Jul-23 13:33N 62°00' W 006°46'0 0.0
2016-Jul-23 12:33N 62°00' W 006°46'0 0.0
2016-Jul-23 11:33N 62°00' W 006°46'0 0.0
2016-Jul-23 10:33N 62°00' W 006°46'0 0.0
2016-Jul-23 09:33N 62°00' W 006°46'0 0.0
2016-Jul-23 08:33N 62°00' W 006°46'0 0.0
2016-Jul-23 07:33N 62°00' W 006°46'0 0.0
2016-Jul-23 06:33N 62°00' W 006°46'0 0.0
2016-Jul-23 04:33N 62°00' W 006°46'0 0.0
2016-Jul-23 03:34N 62°00' W 006°46'0 0.0
2016-Jul-23 02:33N 62°00' W 006°46'0 0.0
2016-Jul-23 01:33N 62°00' W 006°46'0 0.0
2016-Jul-23 00:34N 62°00' W 006°46'0 0.0
2016-Jul-22 23:33N 62°00' W 006°46'0 0.0
2016-Jul-22 22:34N 62°00' W 006°46'0 0.0
2016-Jul-22 21:33N 62°00' W 006°46'0 0.0
2016-Jul-22 20:33N 62°00' W 006°46'0 0.0
2016-Jul-22 19:33N 62°00' W 006°46'0 0.0
2016-Jul-22 18:33N 62°00' W 006°46'0 0.0
2016-Jul-22 17:33N 62°00' W 006°46'0 0.0
2016-Jul-22 16:33N 62°00' W 006°46'0 0.0
2016-Jul-22 15:34N 62°00' W 006°46'0 0.0
2016-Jul-22 14:33N 62°00' W 006°46'0 0.0
2016-Jul-22 13:33N 62°00' W 006°46'0 0.0
2016-Jul-22 12:33N 62°00' W 006°46'0 0.0
2016-Jul-22 11:33N 62°00' W 006°46'0 0.0
2016-Jul-22 10:33N 62°00' W 006°46'0 0.0
2016-Jul-22 09:34N 62°00' W 006°46'0 0.0
2016-Jul-22 08:33N 62°00' W 006°46'0 0.0
2016-Jul-22 07:34N 62°00' W 006°46'0 0.0
2016-Jul-22 05:33N 62°00' W 006°46'0 0.0
2016-Jul-22 04:33N 62°00' W 006°46'0 0.0
2016-Jul-22 03:33N 62°00' W 006°46'0 0.0
2016-Jul-22 02:33N 62°00' W 006°46'0 0.0
2016-Jul-22 01:33N 62°00' W 006°46'0 0.0
2016-Jul-22 00:34N 62°00' W 006°46'0 0.0
2016-Jul-21 23:34N 62°00' W 006°46'0 0.0
2016-Jul-21 22:33N 62°00' W 006°46'0 0.0
2016-Jul-21 21:29N 62°00' W 006°46'0 0.0
2016-Jul-21 20:33N 62°00' W 006°46'0 0.0
2016-Jul-21 19:33N 62°00' W 006°46'0 0.0
2016-Jul-21 18:33N 62°00' W 006°46'0 0.0
2016-Jul-21 17:33N 62°00' W 006°46'0 0.0
2016-Jul-21 16:33N 62°00' W 006°46'0 0.0
2016-Jul-21 15:33N 62°00' W 006°46'0 0.2
2016-Jul-21 14:33N 62°00' W 006°46'0 0.0
2016-Jul-21 13:33N 62°00' W 006°46'0 0.0
2016-Jul-21 12:20N 62°00' W 006°46'0 0.0
2016-Jul-21 11:33N 62°00' W 006°46'0 0.0
2016-Jul-21 10:33N 62°00' W 006°46'0 0.0
2016-Jul-21 09:33N 62°00' W 006°46'0 0.0
2016-Jul-21 08:33N 62°00' W 006°46'0 0.0
2016-Jul-21 07:34N 62°00' W 006°46'0 0.0
2016-Jul-21 06:34N 62°00' W 006°46'0 0.0
2016-Jul-21 05:33N 62°00' W 006°46'0 0.0
2016-Jul-21 04:33N 62°00' W 006°46'0 0.0
2016-Jul-21 03:34N 62°00' W 006°46'0 0.0
2016-Jul-21 02:33N 62°00' W 006°46'0 0.0
2016-Jul-21 01:34N 62°00' W 006°46'0 0.0
2016-Jul-21 00:33N 62°00' W 006°46'0 0.0
2016-Jul-20 23:33N 62°00' W 006°46'0 0.0
2016-Jul-20 22:33N 62°00' W 006°46'0 0.1
2016-Jul-20 21:33N 62°00' W 006°46'0 0.0
2016-Jul-20 20:33N 62°00' W 006°46'0 0.0
2016-Jul-20 19:34N 62°00' W 006°46'4 4.1
2016-Jul-20 18:33N 61°57' W 006°43'7 7.4
2016-Jul-20 17:34N 61°56' W 006°58'7 6.6
2016-Jul-20 16:33N 61°58' W 007°12'7 6.8
2016-Jul-20 15:33N 61°59' W 007°26'7 7.4
2016-Jul-20 14:33N 62°01' W 007°42'8 7.9
2016-Jul-20 13:34N 62°05' W 007°56'8 8.3
2016-Jul-20 12:33N 62°12' W 008°06'9 9.2
2016-Jul-20 11:34N 62°20' W 008°16'9 8.7
2016-Jul-20 10:33N 62°27' W 008°26'8 8.1
2016-Jul-20 09:34N 62°34' W 008°36'8 7.6
2016-Jul-20 08:33N 62°40' W 008°47'11 7.8
2016-Jul-20 07:10N 62°48' W 009°03'5 7.4
2016-Jul-20 06:33N 62°51' W 009°09'15 7.7
2016-Jul-20 04:34N 63°01' W 009°35'8 8.3
2016-Jul-20 03:33N 63°07' W 009°49'  

Dump ship's entire track history